sensor_id;sensor_type;location;lat;lon;timestamp;pressure;altitude;pressure_sealevel;temperature
19196;BMP280;9730;48.926;11.376;2022-11-13T00:00:38;98122.31;;;2.49
19196;BMP280;9730;48.926;11.376;2022-11-13T00:03:28;98128.13;;;2.49
19196;BMP280;9730;48.926;11.376;2022-11-13T00:06:14;98139.91;;;2.22
19196;BMP280;9730;48.926;11.376;2022-11-13T00:08:59;98144.00;;;2.32
19196;BMP280;9730;48.926;11.376;2022-11-13T00:11:44;98132.41;;;2.20
19196;BMP280;9730;48.926;11.376;2022-11-13T00:14:30;98139.09;;;2.10
19196;BMP280;9730;48.926;11.376;2022-11-13T00:17:15;98125.78;;;2.21
19196;BMP280;9730;48.926;11.376;2022-11-13T00:20:02;98134.03;;;2.27
19196;BMP280;9730;48.926;11.376;2022-11-13T00:22:47;98135.75;;;2.15
19196;BMP280;9730;48.926;11.376;2022-11-13T00:25:34;98140.72;;;2.12
19196;BMP280;9730;48.926;11.376;2022-11-13T00:28:21;98136.59;;;2.15
19196;BMP280;9730;48.926;11.376;2022-11-13T00:31:06;98125.78;;;2.21
19196;BMP280;9730;48.926;11.376;2022-11-13T00:33:52;98144.03;;;2.20
19196;BMP280;9730;48.926;11.376;2022-11-13T00:36:38;98142.38;;;2.19
19196;BMP280;9730;48.926;11.376;2022-11-13T00:39:23;98159.00;;;2.12
19196;BMP280;9730;48.926;11.376;2022-11-13T00:42:08;98159.81;;;2.11
19196;BMP280;9730;48.926;11.376;2022-11-13T00:44:54;98152.34;;;2.14
19196;BMP280;9730;48.926;11.376;2022-11-13T00:47:39;98155.66;;;2.21
19196;BMP280;9730;48.926;11.376;2022-11-13T00:50:24;98158.94;;;2.27
19196;BMP280;9730;48.926;11.376;2022-11-13T00:53:11;98155.66;;;2.21
19196;BMP280;9730;48.926;11.376;2022-11-13T00:55:56;98168.19;;;1.85
19196;BMP280;9730;48.926;11.376;2022-11-13T00:58:43;98141.72;;;1.58
19196;BMP280;9730;48.926;11.376;2022-11-13T01:01:28;98131.75;;;1.63
19196;BMP280;9730;48.926;11.376;2022-11-13T01:04:13;98126.78;;;1.52
19196;BMP280;9730;48.926;11.376;2022-11-13T01:06:59;98118.50;;;1.56
19196;BMP280;9730;48.926;11.376;2022-11-13T01:09:48;98104.41;;;1.60
19196;BMP280;9730;48.926;11.376;2022-11-13T01:12:34;98101.09;;;1.47
19196;BMP280;9730;48.926;11.376;2022-11-13T01:15:19;98093.63;;;1.50
19196;BMP280;9730;48.926;11.376;2022-11-13T01:18:05;98094.47;;;1.46
19196;BMP280;9730;48.926;11.376;2022-11-13T01:20:50;98086.97;;;1.75
19196;BMP280;9730;48.926;11.376;2022-11-13T01:23:36;98083.63;;;1.75
19196;BMP280;9730;48.926;11.376;2022-11-13T01:26:24;98073.63;;;1.90
19196;BMP280;9730;48.926;11.376;2022-11-13T01:29:10;98072.81;;;1.88
19196;BMP280;9730;48.926;11.376;2022-11-13T01:31:56;98061.19;;;1.97
19196;BMP280;9730;48.926;11.376;2022-11-13T01:34:41;98055.34;;;2.06
19196;BMP280;9730;48.926;11.376;2022-11-13T01:37:27;98060.28;;;2.07
19196;BMP280;9730;48.926;11.376;2022-11-13T01:40:13;98074.44;;;1.96
19196;BMP280;9730;48.926;11.376;2022-11-13T01:43:13;98067.81;;;1.95
19196;BMP280;9730;48.926;11.376;2022-11-13T01:46:08;98068.63;;;1.93
19196;BMP280;9730;48.926;11.376;2022-11-13T01:48:58;98070.25;;;2.07
19196;BMP280;9730;48.926;11.376;2022-11-13T01:51:48;98069.41;;;2.08
19196;BMP280;9730;48.926;11.376;2022-11-13T01:54:37;98076.09;;;2.00
19196;BMP280;9730;48.926;11.376;2022-11-13T01:57:24;98066.09;;;2.06
19196;BMP280;9730;48.926;11.376;2022-11-13T02:00:12;98069.41;;;2.07
19196;BMP280;9730;48.926;11.376;2022-11-13T02:02:57;98061.16;;;2.00
19196;BMP280;9730;48.926;11.376;2022-11-13T02:05:42;98056.09;;;2.13
19196;BMP280;9730;48.926;11.376;2022-11-13T02:08:27;98060.22;;;2.19
19196;BMP280;9730;48.926;11.376;2022-11-13T02:11:13;98068.59;;;2.05
19196;BMP280;9730;48.926;11.376;2022-11-13T02:13:58;98065.22;;;2.14
19196;BMP280;9730;48.926;11.376;2022-11-13T02:16:47;98071.06;;;2.09
19196;BMP280;9730;48.926;11.376;2022-11-13T02:19:35;98066.16;;;1.90
19196;BMP280;9730;48.926;11.376;2022-11-13T02:22:26;98058.81;;;1.53
19196;BMP280;9730;48.926;11.376;2022-11-13T02:25:15;98048.00;;;1.68
19196;BMP280;9730;48.926;11.376;2022-11-13T02:28:01;98041.31;;;1.85
19196;BMP280;9730;48.926;11.376;2022-11-13T02:30:46;98048.78;;;1.81
19196;BMP280;9730;48.926;11.376;2022-11-13T02:33:32;98044.66;;;1.69
19196;BMP280;9730;48.926;11.376;2022-11-13T02:36:19;98030.69;;;1.34
19196;BMP280;9730;48.926;11.376;2022-11-13T02:39:08;98020.78;;;1.28
19196;BMP280;9730;48.926;11.376;2022-11-13T02:41:55;98011.53;;;1.69
19196;BMP280;9730;48.926;11.376;2022-11-13T02:44:40;98015.66;;;1.71
19196;BMP280;9730;48.926;11.376;2022-11-13T02:47:25;98009.75;;;1.89
19196;BMP280;9730;48.926;11.376;2022-11-13T02:50:10;98022.22;;;1.86
19196;BMP280;9730;48.926;11.376;2022-11-13T02:52:55;98028.03;;;1.86
19196;BMP280;9730;48.926;11.376;2022-11-13T02:55:40;98033.81;;;1.93
19196;BMP280;9730;48.926;11.376;2022-11-13T02:58:27;98039.63;;;1.95
19196;BMP280;9730;48.926;11.376;2022-11-13T03:01:12;98053.78;;;1.79
19196;BMP280;9730;48.926;11.376;2022-11-13T03:03:57;98035.53;;;1.76
19196;BMP280;9730;48.926;11.376;2022-11-13T03:06:42;98033.91;;;1.70
19196;BMP280;9730;48.926;11.376;2022-11-13T03:09:27;98031.38;;;1.82
19196;BMP280;9730;48.926;11.376;2022-11-13T03:12:12;98035.53;;;1.77
19196;BMP280;9730;48.926;11.376;2022-11-13T03:14:58;98032.28;;;1.59
19196;BMP280;9730;48.926;11.376;2022-11-13T03:17:44;98019.81;;;1.72
19196;BMP280;9730;48.926;11.376;2022-11-13T03:20:29;97999.16;;;1.51
19196;BMP280;9730;48.926;11.376;2022-11-13T03:23:14;98005.78;;;1.54
19196;BMP280;9730;48.926;11.376;2022-11-13T03:26:02;98009.16;;;1.27
19196;BMP280;9730;48.926;11.376;2022-11-13T03:28:47;98004.97;;;1.47
19196;BMP280;9730;48.926;11.376;2022-11-13T03:31:33;97989.94;;;1.69
19196;BMP280;9730;48.926;11.376;2022-11-13T03:34:19;97994.16;;;1.60
19196;BMP280;9730;48.926;11.376;2022-11-13T03:37:04;97985.06;;;1.46
19196;BMP280;9730;48.926;11.376;2022-11-13T03:39:49;97965.19;;;1.46
19196;BMP280;9730;48.926;11.376;2022-11-13T03:42:34;97951.94;;;1.47
19196;BMP280;9730;48.926;11.376;2022-11-13T03:45:19;97937.88;;;1.41
19196;BMP280;9730;48.926;11.376;2022-11-13T03:48:05;97924.53;;;1.54
19196;BMP280;9730;48.926;11.376;2022-11-13T03:50:53;97914.53;;;1.69
19196;BMP280;9730;48.926;11.376;2022-11-13T03:53:38;97923.75;;;1.45
19196;BMP280;9730;48.926;11.376;2022-11-13T03:56:23;97920.44;;;1.43
19196;BMP280;9730;48.926;11.376;2022-11-13T03:59:09;97923.84;;;1.30
19196;BMP280;9730;48.926;11.376;2022-11-13T04:01:54;97912.19;;;1.41
19196;BMP280;9730;48.926;11.376;2022-11-13T04:04:40;97913.03;;;1.29
19196;BMP280;9730;48.926;11.376;2022-11-13T04:07:25;97918.00;;;1.31
19196;BMP280;9730;48.926;11.376;2022-11-13T04:10:10;97900.59;;;1.31
19196;BMP280;9730;48.926;11.376;2022-11-13T04:12:56;97905.56;;;1.38
19196;BMP280;9730;48.926;11.376;2022-11-13T04:15:41;97895.63;;;1.29
19196;BMP280;9730;48.926;11.376;2022-11-13T04:18:26;97890.59;;;1.44
19196;BMP280;9730;48.926;11.376;2022-11-13T04:21:12;97892.34;;;1.27
19196;BMP280;9730;48.926;11.376;2022-11-13T04:23:57;97885.75;;;1.20
19196;BMP280;9730;48.926;11.376;2022-11-13T04:26:43;97878.31;;;1.17
19196;BMP280;9730;48.926;11.376;2022-11-13T04:29:28;97870.00;;;1.21
19196;BMP280;9730;48.926;11.376;2022-11-13T04:32:13;97860.78;;;1.41
19196;BMP280;9730;48.926;11.376;2022-11-13T04:34:58;97860.84;;;1.28
19196;BMP280;9730;48.926;11.376;2022-11-13T04:37:45;97850.03;;;1.44
19196;BMP280;9730;48.926;11.376;2022-11-13T04:40:30;97854.25;;;1.24
19196;BMP280;9730;48.926;11.376;2022-11-13T04:43:15;97851.75;;;1.25
19196;BMP280;9730;48.926;11.376;2022-11-13T04:45:59;97848.41;;;1.31
19196;BMP280;9730;48.926;11.376;2022-11-13T04:48:44;97850.94;;;1.22
19196;BMP280;9730;48.926;11.376;2022-11-13T04:51:29;97865.03;;;1.15
19196;BMP280;9730;48.926;11.376;2022-11-13T04:54:16;97861.75;;;1.13
19196;BMP280;9730;48.926;11.376;2022-11-13T04:57:01;97864.19;;;1.21
19196;BMP280;9730;48.926;11.376;2022-11-13T04:59:46;97857.56;;;1.26
19196;BMP280;9730;48.926;11.376;2022-11-13T05:02:31;97858.41;;;1.20
19196;BMP280;9730;48.926;11.376;2022-11-13T05:05:16;97867.59;;;1.06
19196;BMP280;9730;48.926;11.376;2022-11-13T05:08:02;97860.94;;;1.16
19196;BMP280;9730;48.926;11.376;2022-11-13T05:10:48;97865.91;;;1.10
19196;BMP280;9730;48.926;11.376;2022-11-13T05:13:35;97861.75;;;1.07
19196;BMP280;9730;48.926;11.376;2022-11-13T05:16:20;97864.25;;;1.03
19196;BMP280;9730;48.926;11.376;2022-11-13T05:19:06;97863.41;;;1.17
19196;BMP280;9730;48.926;11.376;2022-11-13T05:21:51;97861.69;;;1.24
19196;BMP280;9730;48.926;11.376;2022-11-13T05:24:36;97870.78;;;1.28
19196;BMP280;9730;48.926;11.376;2022-11-13T05:27:22;97884.09;;;1.16
19196;BMP280;9730;48.926;11.376;2022-11-13T05:30:08;97891.59;;;1.12
19196;BMP280;9730;48.926;11.376;2022-11-13T05:32:53;97902.38;;;0.96
19196;BMP280;9730;48.926;11.376;2022-11-13T05:35:39;97899.94;;;0.84
19196;BMP280;9730;48.926;11.376;2022-11-13T05:38:24;97885.84;;;0.86
19196;BMP280;9730;48.926;11.376;2022-11-13T05:41:11;97879.25;;;0.82
19196;BMP280;9730;48.926;11.376;2022-11-13T05:43:58;97856.84;;;0.88
19196;BMP280;9730;48.926;11.376;2022-11-13T05:46:43;97846.97;;;0.81
19196;BMP280;9730;48.926;11.376;2022-11-13T05:49:28;97849.41;;;0.97
19196;BMP280;9730;48.926;11.376;2022-11-13T05:52:14;97850.22;;;0.98
19196;BMP280;9730;48.926;11.376;2022-11-13T05:54:59;97846.06;;;1.01
19196;BMP280;9730;48.926;11.376;2022-11-13T05:57:44;97852.72;;;0.95
19196;BMP280;9730;48.926;11.376;2022-11-13T06:00:30;97849.41;;;0.88
19196;BMP280;9730;48.926;11.376;2022-11-13T06:03:16;97848.59;;;0.88
19196;BMP280;9730;48.926;11.376;2022-11-13T06:06:00;97840.34;;;0.86
19196;BMP280;9730;48.926;11.376;2022-11-13T06:08:46;97845.34;;;0.71
19196;BMP280;9730;48.926;11.376;2022-11-13T06:11:32;97838.63;;;1.01
19196;BMP280;9730;48.926;11.376;2022-11-13T06:14:18;97841.97;;;0.93
19196;BMP280;9730;48.926;11.376;2022-11-13T06:17:04;97845.25;;;0.98
19196;BMP280;9730;48.926;11.376;2022-11-13T06:19:49;97851.88;;;0.96
19196;BMP280;9730;48.926;11.376;2022-11-13T06:22:34;97857.66;;;1.01
19196;BMP280;9730;48.926;11.376;2022-11-13T06:25:20;97867.59;;;1.05
19196;BMP280;9730;48.926;11.376;2022-11-13T06:28:05;97860.13;;;1.09
19196;BMP280;9730;48.926;11.376;2022-11-13T06:30:50;97870.06;;;1.01
19196;BMP280;9730;48.926;11.376;2022-11-13T06:33:37;97865.13;;;0.93
19196;BMP280;9730;48.926;11.376;2022-11-13T06:36:25;97865.97;;;0.98
19196;BMP280;9730;48.926;11.376;2022-11-13T06:39:10;97852.75;;;0.81
19196;BMP280;9730;48.926;11.376;2022-11-13T06:41:56;97852.75;;;0.77
19196;BMP280;9730;48.926;11.376;2022-11-13T06:44:41;97843.69;;;0.67
19196;BMP280;9730;48.926;11.376;2022-11-13T06:47:26;97820.50;;;0.71
19196;BMP280;9730;48.926;11.376;2022-11-13T06:50:13;97816.34;;;0.79
19196;BMP280;9730;48.926;11.376;2022-11-13T06:52:58;97829.59;;;0.76
19196;BMP280;9730;48.926;11.376;2022-11-13T06:55:45;97817.16;;;0.79
19196;BMP280;9730;48.926;11.376;2022-11-13T06:58:30;97817.16;;;0.79
19196;BMP280;9730;48.926;11.376;2022-11-13T07:01:18;97809.66;;;0.97
19196;BMP280;9730;48.926;11.376;2022-11-13T07:04:04;97826.16;;;1.07
19196;BMP280;9730;48.926;11.376;2022-11-13T07:06:50;97820.44;;;0.92
19196;BMP280;9730;48.926;11.376;2022-11-13T07:09:35;97817.19;;;0.76
19196;BMP280;9730;48.926;11.376;2022-11-13T07:12:20;97812.88;;;1.14
19196;BMP280;9730;48.926;11.376;2022-11-13T07:15:06;97830.41;;;0.83
19196;BMP280;9730;48.926;11.376;2022-11-13T07:17:51;97824.56;;;0.97
19196;BMP280;9730;48.926;11.376;2022-11-13T07:20:37;97820.38;;;1.08
19196;BMP280;9730;48.926;11.376;2022-11-13T07:23:23;97796.59;;;1.95
19196;BMP280;9730;48.926;11.376;2022-11-13T07:26:09;97834.28;;;1.39
19196;BMP280;9730;48.926;11.376;2022-11-13T07:28:54;97837.63;;;1.32
19196;BMP280;9730;48.926;11.376;2022-11-13T07:31:39;97839.22;;;1.42
19196;BMP280;9730;48.926;11.376;2022-11-13T07:34:24;97850.88;;;1.38
19196;BMP280;9730;48.926;11.376;2022-11-13T07:37:09;97850.00;;;1.45
19196;BMP280;9730;48.926;11.376;2022-11-13T07:39:55;97859.97;;;1.38
19196;BMP280;9730;48.926;11.376;2022-11-13T07:42:41;97849.06;;;1.61
19196;BMP280;9730;48.926;11.376;2022-11-13T07:45:26;97855.63;;;1.71
19196;BMP280;9730;48.926;11.376;2022-11-13T07:48:12;97867.31;;;1.63
19196;BMP280;9730;48.926;11.376;2022-11-13T07:50:59;97862.31;;;1.64
19196;BMP280;9730;48.926;11.376;2022-11-13T07:53:45;97858.91;;;1.77
19196;BMP280;9730;48.926;11.376;2022-11-13T07:56:31;97869.72;;;1.72
19196;BMP280;9730;48.926;11.376;2022-11-13T07:59:16;97877.44;;;1.29
19196;BMP280;9730;48.926;11.376;2022-11-13T08:02:02;97853.97;;;1.74
19196;BMP280;9730;48.926;11.376;2022-11-13T08:04:47;97872.13;;;1.85
19196;BMP280;9730;48.926;11.376;2022-11-13T08:07:32;97883.25;;;1.22
19196;BMP280;9730;48.926;11.376;2022-11-13T08:10:18;97873.41;;;0.94
19196;BMP280;9730;48.926;11.376;2022-11-13T08:13:06;97860.00;;;1.30
19196;BMP280;9730;48.926;11.376;2022-11-13T08:15:52;97858.25;;;1.55
19196;BMP280;9730;48.926;11.376;2022-11-13T08:18:37;97861.44;;;1.74
19196;BMP280;9730;48.926;11.376;2022-11-13T08:21:22;97871.31;;;1.85
19196;BMP280;9730;48.926;11.376;2022-11-13T08:24:08;97877.16;;;1.81
19196;BMP280;9730;48.926;11.376;2022-11-13T08:26:53;97896.25;;;1.74
19196;BMP280;9730;48.926;11.376;2022-11-13T08:29:39;97891.19;;;1.91
19196;BMP280;9730;48.926;11.376;2022-11-13T08:32:24;97894.56;;;1.82
19196;BMP280;9730;48.926;11.376;2022-11-13T08:35:10;97896.16;;;1.91
19196;BMP280;9730;48.926;11.376;2022-11-13T08:38:00;97890.75;;;2.47
19196;BMP280;9730;48.926;11.376;2022-11-13T08:40:45;97898.81;;;2.73
19196;BMP280;9730;48.926;11.376;2022-11-13T08:43:31;97921.50;;;2.42
19196;BMP280;9730;48.926;11.376;2022-11-13T08:46:17;97931.47;;;2.39
19196;BMP280;9730;48.926;11.376;2022-11-13T08:49:10;97943.94;;;2.34
19196;BMP280;9730;48.926;11.376;2022-11-13T08:51:56;97949.78;;;2.32
19196;BMP280;9730;48.926;11.376;2022-11-13T08:54:41;97952.25;;;2.36
19196;BMP280;9730;48.926;11.376;2022-11-13T08:57:26;97954.91;;;2.08
19196;BMP280;9730;48.926;11.376;2022-11-13T09:00:12;97937.44;;;2.17
19196;BMP280;9730;48.926;11.376;2022-11-13T09:02:59;97936.50;;;2.30
19196;BMP280;9730;48.926;11.376;2022-11-13T09:05:44;97938.97;;;2.36
19196;BMP280;9730;48.926;11.376;2022-11-13T09:08:29;97941.44;;;2.39
19196;BMP280;9730;48.926;11.376;2022-11-13T09:11:15;97939.59;;;2.59
19196;BMP280;9730;48.926;11.376;2022-11-13T09:14:00;97944.72;;;2.41
19196;BMP280;9730;48.926;11.376;2022-11-13T09:16:45;97927.25;;;2.47
19196;BMP280;9730;48.926;11.376;2022-11-13T09:19:32;97917.94;;;2.69
19196;BMP280;9730;48.926;11.376;2022-11-13T09:22:17;97916.13;;;2.85
19196;BMP280;9730;48.926;11.376;2022-11-13T09:25:03;97919.34;;;2.96
19196;BMP280;9730;48.926;11.376;2022-11-13T09:27:51;97894.28;;;3.09
19196;BMP280;9730;48.926;11.376;2022-11-13T09:30:38;97873.94;;;3.39
19196;BMP280;9730;48.926;11.376;2022-11-13T09:33:23;97859.59;;;3.57
19196;BMP280;9730;48.926;11.376;2022-11-13T09:36:11;97845.22;;;3.74
19196;BMP280;9730;48.926;11.376;2022-11-13T09:38:57;97830.91;;;3.85
19196;BMP280;9730;48.926;11.376;2022-11-13T09:41:45;97821.53;;;3.99
19196;BMP280;9730;48.926;11.376;2022-11-13T09:44:35;97807.91;;;4.16
19196;BMP280;9730;48.926;11.376;2022-11-13T09:47:27;97790.19;;;4.31
19196;BMP280;9730;48.926;11.376;2022-11-13T09:50:17;97782.44;;;4.46
19196;BMP280;9730;48.926;11.376;2022-11-13T09:53:04;97768.94;;;4.54
19196;BMP280;9730;48.926;11.376;2022-11-13T09:55:55;97761.19;;;4.69
19196;BMP280;9730;48.926;11.376;2022-11-13T09:58:46;97751.25;;;5.05
19196;BMP280;9730;48.926;11.376;2022-11-13T10:01:40;97742.06;;;5.06
19196;BMP280;9730;48.926;11.376;2022-11-13T10:04:45;97724.56;;;5.07
19196;BMP280;9730;48.926;11.376;2022-11-13T10:07:38;97704.88;;;5.30
19196;BMP280;9730;48.926;11.376;2022-11-13T10:10:41;97695.59;;;5.70
19196;BMP280;9730;48.926;11.376;2022-11-13T10:13:31;97685.34;;;5.80
19196;BMP280;9730;48.926;11.376;2022-11-13T10:16:26;97672.50;;;6.54
19196;BMP280;9730;48.926;11.376;2022-11-13T10:19:18;97715.72;;;7.46
19196;BMP280;9730;48.926;11.376;2022-11-13T10:22:12;97746.00;;;9.13
19196;BMP280;9730;48.926;11.376;2022-11-13T10:25:09;97847.66;;;10.20
19196;BMP280;9730;48.926;11.376;2022-11-13T10:27:58;97923.56;;;10.34
19196;BMP280;9730;48.926;11.376;2022-11-13T10:30:44;97961.66;;;11.11
19196;BMP280;9730;48.926;11.376;2022-11-13T10:33:30;97969.34;;;11.47
19196;BMP280;9730;48.926;11.376;2022-11-13T10:36:20;97956.75;;;12.57
19196;BMP280;9730;48.926;11.376;2022-11-13T10:39:10;97916.38;;;13.06
19196;BMP280;9730;48.926;11.376;2022-11-13T10:41:55;97882.16;;;12.81
19196;BMP280;9730;48.926;11.376;2022-11-13T10:44:52;97863.94;;;12.91
19196;BMP280;9730;48.926;11.376;2022-11-13T10:47:43;97853.97;;;13.53
19196;BMP280;9730;48.926;11.376;2022-11-13T10:50:30;97803.97;;;14.32
19196;BMP280;9730;48.926;11.376;2022-11-13T10:53:17;97772.47;;;13.60
19196;BMP280;9730;48.926;11.376;2022-11-13T10:56:11;97771.94;;;13.23
19196;BMP280;9730;48.926;11.376;2022-11-13T10:59:03;97764.41;;;14.14
19196;BMP280;9730;48.926;11.376;2022-11-13T11:01:49;97762.75;;;13.37
19196;BMP280;9730;48.926;11.376;2022-11-13T11:04:34;97728.63;;;14.47
19196;BMP280;9730;48.926;11.376;2022-11-13T11:07:21;97707.38;;;14.48
19196;BMP280;9730;48.926;11.376;2022-11-13T11:10:22;97671.75;;;15.05
19196;BMP280;9730;48.926;11.376;2022-11-13T11:13:11;97670.38;;;12.97
19196;BMP280;9730;48.926;11.376;2022-11-13T11:15:58;97669.22;;;14.36
19196;BMP280;9730;48.926;11.376;2022-11-13T11:18:51;97626.16;;;14.90
19196;BMP280;9730;48.926;11.376;2022-11-13T11:21:39;97643.50;;;13.40
19196;BMP280;9730;48.926;11.376;2022-11-13T11:24:30;97655.50;;;13.81
19196;BMP280;9730;48.926;11.376;2022-11-13T11:27:20;97657.81;;;14.43
19196;BMP280;9730;48.926;11.376;2022-11-13T11:30:19;97576.53;;;14.98
19196;BMP280;9730;48.926;11.376;2022-11-13T11:33:11;97567.53;;;15.96
19196;BMP280;9730;48.926;11.376;2022-11-13T11:36:07;97551.50;;;16.44
19196;BMP280;9730;48.926;11.376;2022-11-13T11:39:01;97485.13;;;16.94
19196;BMP280;9730;48.926;11.376;2022-11-13T11:41:57;97491.19;;;16.09
19196;BMP280;9730;48.926;11.376;2022-11-13T11:44:56;97537.00;;;16.09
19196;BMP280;9730;48.926;11.376;2022-11-13T11:47:44;97493.72;;;16.21
19196;BMP280;9730;48.926;11.376;2022-11-13T11:50:34;97458.31;;;16.18
19196;BMP280;9730;48.926;11.376;2022-11-13T11:53:33;97408.00;;;15.86
19196;BMP280;9730;48.926;11.376;2022-11-13T11:56:23;97397.53;;;16.26
19196;BMP280;9730;48.926;11.376;2022-11-13T11:59:24;97434.66;;;15.31
19196;BMP280;9730;48.926;11.376;2022-11-13T12:02:32;97389.78;;;16.51
19196;BMP280;9730;48.926;11.376;2022-11-13T12:05:21;97382.47;;;15.75
19196;BMP280;9730;48.926;11.376;2022-11-13T12:08:14;97346.75;;;15.77
19196;BMP280;9730;48.926;11.376;2022-11-13T12:11:11;97343.41;;;16.12
19196;BMP280;9730;48.926;11.376;2022-11-13T12:14:08;97328.59;;;16.29
19196;BMP280;9730;48.926;11.376;2022-11-13T12:17:12;97314.03;;;16.31
19196;BMP280;9730;48.926;11.376;2022-11-13T12:20:08;97305.47;;;15.86
19196;BMP280;9730;48.926;11.376;2022-11-13T12:23:10;97303.69;;;16.79
19196;BMP280;9730;48.926;11.376;2022-11-13T12:26:01;97287.06;;;17.19
19196;BMP280;9730;48.926;11.376;2022-11-13T12:28:50;97258.19;;;17.18
19196;BMP280;9730;48.926;11.376;2022-11-13T12:31:45;97265.41;;;17.99
19196;BMP280;9730;48.926;11.376;2022-11-13T12:34:36;97237.97;;;18.12
19196;BMP280;9730;48.926;11.376;2022-11-13T12:37:27;97224.16;;;18.25
19196;BMP280;9730;48.926;11.376;2022-11-13T12:40:22;97233.41;;;16.88
19196;BMP280;9730;48.926;11.376;2022-11-13T12:43:31;97236.88;;;17.63
19196;BMP280;9730;48.926;11.376;2022-11-13T12:46:20;97207.34;;;16.62
19196;BMP280;9730;48.926;11.376;2022-11-13T12:49:15;97206.91;;;17.12
19196;BMP280;9730;48.926;11.376;2022-11-13T12:52:01;97204.81;;;16.95
19196;BMP280;9730;48.926;11.376;2022-11-13T12:54:46;97228.44;;;16.97
19196;BMP280;9730;48.926;11.376;2022-11-13T12:57:32;97214.38;;;15.91
19196;BMP280;9730;48.926;11.376;2022-11-13T13:00:24;97205.34;;;16.21
19196;BMP280;9730;48.926;11.376;2022-11-13T13:03:34;97206.84;;;15.55
19196;BMP280;9730;48.926;11.376;2022-11-13T13:06:41;97202.88;;;15.51
19196;BMP280;9730;48.926;11.376;2022-11-13T13:09:39;97206.44;;;14.76
19196;BMP280;9730;48.926;11.376;2022-11-13T13:12:37;97212.25;;;15.38
19196;BMP280;9730;48.926;11.376;2022-11-13T13:15:29;97216.78;;;14.97
19196;BMP280;9730;48.926;11.376;2022-11-13T13:18:27;97201.56;;;15.45
19196;BMP280;9730;48.926;11.376;2022-11-13T13:21:13;97198.09;;;15.23
19196;BMP280;9730;48.926;11.376;2022-11-13T13:24:06;97186.50;;;15.07
19196;BMP280;9730;48.926;11.376;2022-11-13T13:26:52;97205.03;;;14.47
19196;BMP280;9730;48.926;11.376;2022-11-13T13:29:39;97195.19;;;14.55
19196;BMP280;9730;48.926;11.376;2022-11-13T13:32:34;97203.56;;;14.18
19196;BMP280;9730;48.926;11.376;2022-11-13T13:35:26;97204.41;;;14.31
19196;BMP280;9730;48.926;11.376;2022-11-13T13:38:18;97193.34;;;14.32
19196;BMP280;9730;48.926;11.376;2022-11-13T13:41:15;97194.63;;;14.13
19196;BMP280;9730;48.926;11.376;2022-11-13T13:44:34;97206.97;;;13.66
19196;BMP280;9730;48.926;11.376;2022-11-13T13:47:24;97209.41;;;13.68
19196;BMP280;9730;48.926;11.376;2022-11-13T13:50:14;97222.53;;;13.60
19196;BMP280;9730;48.926;11.376;2022-11-13T13:53:01;97209.91;;;13.73
19196;BMP280;9730;48.926;11.376;2022-11-13T13:55:48;97218.75;;;13.53
19196;BMP280;9730;48.926;11.376;2022-11-13T13:58:35;97216.56;;;13.61
19196;BMP280;9730;48.926;11.376;2022-11-13T14:01:26;97219.13;;;13.47
19196;BMP280;9730;48.926;11.376;2022-11-13T14:04:13;97221.19;;;13.55
19196;BMP280;9730;48.926;11.376;2022-11-13T14:07:00;97222.75;;;13.43
19196;BMP280;9730;48.926;11.376;2022-11-13T14:09:47;97228.41;;;13.34
19196;BMP280;9730;48.926;11.376;2022-11-13T14:12:32;97217.13;;;13.26
19196;BMP280;9730;48.926;11.376;2022-11-13T14:15:25;97227.97;;;13.28
19196;BMP280;9730;48.926;11.376;2022-11-13T14:18:12;97222.44;;;13.22
19196;BMP280;9730;48.926;11.376;2022-11-13T14:20:59;97224.88;;;13.23
19196;BMP280;9730;48.926;11.376;2022-11-13T14:23:48;97221.00;;;13.18
19196;BMP280;9730;48.926;11.376;2022-11-13T14:26:35;97227.00;;;13.03
19196;BMP280;9730;48.926;11.376;2022-11-13T14:29:25;97227.19;;;13.00
19196;BMP280;9730;48.926;11.376;2022-11-13T14:32:16;97240.75;;;12.85
19196;BMP280;9730;48.926;11.376;2022-11-13T14:35:04;97240.53;;;12.74
19196;BMP280;9730;48.926;11.376;2022-11-13T14:37:52;97246.56;;;12.72
19196;BMP280;9730;48.926;11.376;2022-11-13T14:40:38;97244.50;;;12.64
19196;BMP280;9730;48.926;11.376;2022-11-13T14:43:27;97252.59;;;12.55
19196;BMP280;9730;48.926;11.376;2022-11-13T14:46:25;97251.25;;;12.50
19196;BMP280;9730;48.926;11.376;2022-11-13T14:49:13;97240.69;;;12.57
19196;BMP280;9730;48.926;11.376;2022-11-13T14:51:58;97243.75;;;12.48
19196;BMP280;9730;48.926;11.376;2022-11-13T14:54:44;97238.47;;;12.37
19196;BMP280;9730;48.926;11.376;2022-11-13T14:57:29;97244.28;;;12.39
19196;BMP280;9730;48.926;11.376;2022-11-13T15:00:17;97241.66;;;12.41
19196;BMP280;9730;48.926;11.376;2022-11-13T15:03:05;97252.38;;;12.01
19196;BMP280;9730;48.926;11.376;2022-11-13T15:05:50;97266.75;;;12.01
19196;BMP280;9730;48.926;11.376;2022-11-13T15:08:35;97268.78;;;11.94
19196;BMP280;9730;48.926;11.376;2022-11-13T15:11:23;97262.88;;;11.80
19196;BMP280;9730;48.926;11.376;2022-11-13T15:14:10;97289.56;;;11.38
19196;BMP280;9730;48.926;11.376;2022-11-13T15:16:57;97297.72;;;11.43
19196;BMP280;9730;48.926;11.376;2022-11-13T15:19:44;97297.81;;;11.41
19196;BMP280;9730;48.926;11.376;2022-11-13T15:22:31;97297.81;;;11.09
19196;BMP280;9730;48.926;11.376;2022-11-13T15:25:18;97312.94;;;10.77
19196;BMP280;9730;48.926;11.376;2022-11-13T15:28:03;97345.47;;;10.49
19196;BMP280;9730;48.926;11.376;2022-11-13T15:30:48;97349.00;;;10.28
19196;BMP280;9730;48.926;11.376;2022-11-13T15:33:35;97365.16;;;10.24
19196;BMP280;9730;48.926;11.376;2022-11-13T15:36:20;97376.97;;;9.87
19196;BMP280;9730;48.926;11.376;2022-11-13T15:39:07;97392.28;;;9.83
19196;BMP280;9730;48.926;11.376;2022-11-13T15:41:52;97402.06;;;9.52
19196;BMP280;9730;48.926;11.376;2022-11-13T15:44:37;97424.13;;;9.65
19196;BMP280;9730;48.926;11.376;2022-11-13T15:47:27;97428.50;;;9.42
19196;BMP280;9730;48.926;11.376;2022-11-13T15:50:14;97441.22;;;9.39
19196;BMP280;9730;48.926;11.376;2022-11-13T15:52:59;97453.47;;;9.47
19196;BMP280;9730;48.926;11.376;2022-11-13T15:55:46;97452.94;;;9.40
19196;BMP280;9730;48.926;11.376;2022-11-13T15:58:31;97459.91;;;9.53
19196;BMP280;9730;48.926;11.376;2022-11-13T16:01:16;97456.84;;;9.47
19196;BMP280;9730;48.926;11.376;2022-11-13T16:04:01;97458.34;;;9.31
19196;BMP280;9730;48.926;11.376;2022-11-13T16:06:50;97477.22;;;9.61
19196;BMP280;9730;48.926;11.376;2022-11-13T16:09:35;97455.94;;;9.48
19196;BMP280;9730;48.926;11.376;2022-11-13T16:12:20;97466.16;;;9.25
19196;BMP280;9730;48.926;11.376;2022-11-13T16:15:06;97467.66;;;9.09